Accueil
METAR-TAF:

METAR-TAF

Aéroports :

Aéroport de Huesca-Pyrénées

Huesca, Espagne

latitude: 42-04-32N, longitude: 0-18-58W, altitude: 539 m

Observation

Le bulletin a été fait il y a 23 minutes, à 07:30 UTC
Vent 2 kt de direction variable
Température 15°C
Humidité 82%
Pression 1014 hPa
Visibilité 10 km ou plus
Quelques nuages à une hauteur de 5000 ft

METAR: LEHC 220730Z VRB02KT 9999 FEW050 15/12 Q1014

Heure: 09:53 (07:53 UTC)

Prévision

Le bulletin a été fait il y a 5 heures et 53 minutes, à 02:00 UTC
Prévision valable du 22 à 03 UTC au 23 à 03 UTC
Vent 3 kt de direction variable
Visibilité 10 km ou plus
Nuages épars à une hauteur de 4000 ft
Evoluant progressivement
du 22 à 08 UTC au 22 à 11 UTC
Vent 8 kt de sud-ouest
Evoluant progressivement
du 22 à 19 UTC au 22 à 23 UTC
Vent 8 kt de est

TAF: LEHC 220200Z 2203/2303 VRB03KT 9999 SCT040 TX26/2214Z TN13/2206Z BECMG 2208/2211 23008KT BECMG 2219/2223 08008KT

Observations et prévisions météorologiques de plus de 4000 aéroports (messages METAR et TAF).

Les stations disponibles sont représentées par des disques jaunes et rouges sur la carte.

Passer la souris dessus pour voir le nom de la station.

Cliquer dessus pour voir les observations et prévisions météorologiques.

Pour changer de carte: cliquez sur les boutons verts avec une croix noire pour zoomer, sur le bouton vert avec un tiret pour effectuer un zoom arrière, ou sur les flèches vertes pour les cartes adjacentes.


METAR-TAF: